Airfield :
LOGIN :

Register | Disclaimer

   EN    FR    IT 

 










Legend :    VFR   Marginal VFR   IFR   Intensive IFR   Very Intensive IFR
Visi :
Ceiling :
>= 8 km
>= 3000ft
5 to 8 km
1000 to 3000 ft
1500m to 5 km
500 to 1000 ft
800 to 1500m
200 to 500 ft
< 800m
< 200 ft
Symbols :   Thunderstorms  Fog  Heavy snow  Heavy precipitations  Wind > 20 kt
SIGMETs :     Misc.  Thunderstorms  Icing  Turbulence  Mountain Waves  Volcanic Ashes







- Airport Elevation : 1079 ft


ETIK - Illesheim Air Base

CURRENT METAR :
  • 211058Z AUTO 28007KT 9999 SCT049 BKN065 18/08 A3026 RMK AO2 SLP248 T01840079

EXPIRED METARs :
  • 210958Z AUTO 23005KT 9999 FEW070 18/09 A3026 RMK AO2 SLP248 T01800093
  • 210858Z AUTO 00000KT 9999 FEW055 18/11 A3026 RMK AO2 SLP247 T01750105 50001

TAF TAF ETIK
Valid from the 21 at 05:00 until the 22 at 11:00 UTC


210521Z 2105/2211 28006KT 9999 SCT050 QNH3021INS
BECMG 2121/2122 18006KT 9999 FEW050 QNH3013INS TX21/2115Z TN06/2203Z
No reported NOTAMs for that airfield.



MET'MAP, your aeronautical weather chart ! - Copyright ORBIFLY December 2007 - Disclaimer

ORBIFLY MET'MAP TEAM :

Programming & Development : Alexandra Zaïnal
Concept & Development : Baudouin d'Aumeries
Co-Development & Prog : Marc-Olivier Méhu
Technical & hardware support : Manuel Goepfert

Contact : metmap@orbifly.com




SOURCES & CREDITS :

   NOAA